Terminal Aerodrome Forecast
Issued by NWS Sterling, VA

Current Version | Previous Version | Graphics & Text | Print | Product List | Glossary On
Versions: 1 2 3 4 5 6 7 8 9 10 11 12 13 14 15 16 17 18
409
FTUS41 KLWX 211722
TAFMRB
TAF
KMRB 211722Z 2118/2218 13004KT P6SM BKN050
     FM220800 14004KT P6SM VCSH OVC020
     FM221200 14004KT P6SM VCSH OVC012
     FM221500 VRB03KT 5SM -SHRA OVC012
     FM221700 15004KT P6SM -SHRA OVC040=

USA.gov is the U.S. government's official web portal to all federal, state and local government web resources and services.